createdAt,value
2022-07-29T00:00:06.433Z,20.70
2022-07-29T00:02:33.449Z,20.70
2022-07-29T00:05:00.729Z,20.60
2022-07-29T00:07:27.680Z,20.50
2022-07-29T00:09:54.526Z,20.50
2022-07-29T00:12:26.783Z,20.40
2022-07-29T00:14:56.045Z,20.40
2022-07-29T00:17:24.280Z,20.40
2022-07-29T00:19:51.485Z,20.40
2022-07-29T00:22:18.471Z,20.40
2022-07-29T00:24:45.327Z,20.40
2022-07-29T00:27:13.968Z,20.40
2022-07-29T00:29:40.784Z,20.40
2022-07-29T00:32:07.887Z,20.40
2022-07-29T00:34:53.056Z,20.40
2022-07-29T00:37:19.958Z,20.30
2022-07-29T00:39:46.826Z,20.30
2022-07-29T00:42:13.695Z,20.30
2022-07-29T00:44:42.182Z,20.20
2022-07-29T00:47:11.451Z,20.00
2022-07-29T00:49:41.890Z,20.00
2022-07-29T00:52:10.813Z,20.00
2022-07-29T00:54:43.937Z,20.00
2022-07-29T00:57:13.078Z,20.00
2022-07-29T00:59:40.112Z,19.90
2022-07-29T01:02:07.034Z,19.30
2022-07-29T01:04:34.379Z,19.20
2022-07-29T01:07:05.150Z,19.30
2022-07-29T01:09:46.789Z,19.40
2022-07-29T01:12:22.973Z,19.40
2022-07-29T01:14:50.943Z,19.50
2022-07-29T01:17:32.644Z,19.50
2022-07-29T01:20:05.065Z,19.50
2022-07-29T01:22:34.970Z,19.50
2022-07-29T01:25:21.106Z,19.40
2022-07-29T01:28:12.294Z,19.40
2022-07-29T01:30:41.513Z,19.20
2022-07-29T01:33:36.585Z,19.20
2022-07-29T01:36:13.000Z,19.20
2022-07-29T01:38:43.472Z,19.10
2022-07-29T01:41:17.324Z,19.10
2022-07-29T01:44:13.204Z,19.20
2022-07-29T01:46:49.581Z,19.20
2022-07-29T01:49:22.557Z,19.30
2022-07-29T01:51:54.506Z,19.30
2022-07-29T01:54:38.831Z,19.30
2022-07-29T01:57:09.523Z,19.30
2022-07-29T01:59:38.617Z,19.40
2022-07-29T02:02:09.588Z,19.30
2022-07-29T02:04:40.295Z,19.30
2022-07-29T02:07:12.274Z,19.30
2022-07-29T02:09:40.625Z,19.20
2022-07-29T02:12:09.253Z,19.10
2022-07-29T02:14:43.101Z,19.10
2022-07-29T02:17:12.260Z,19.00
2022-07-29T02:19:40.658Z,19.00
2022-07-29T02:22:08.519Z,19.00
2022-07-29T02:24:37.951Z,18.90
2022-07-29T02:27:05.507Z,18.70
2022-07-29T02:29:34.456Z,18.70
2022-07-29T02:32:03.785Z,18.80
2022-07-29T02:34:31.337Z,18.70
2022-07-29T02:36:58.167Z,18.70
2022-07-29T02:39:28.096Z,18.80
2022-07-29T02:42:04.035Z,18.80
2022-07-29T02:44:34.489Z,18.80
2022-07-29T02:47:43.157Z,18.70
2022-07-29T02:50:16.532Z,18.70
2022-07-29T02:52:46.553Z,18.60
2022-07-29T02:55:31.768Z,18.60
2022-07-29T02:58:19.096Z,18.70
2022-07-29T03:00:48.921Z,18.80
2022-07-29T03:03:19.266Z,18.80
2022-07-29T03:05:46.535Z,18.90
2022-07-29T03:08:15.841Z,19.00
2022-07-29T03:10:46.520Z,18.80
2022-07-29T03:13:14.390Z,18.70
2022-07-29T03:15:44.482Z,18.70
2022-07-29T03:18:11.828Z,18.70
2022-07-29T03:20:39.593Z,18.70
2022-07-29T03:23:06.520Z,18.60
2022-07-29T03:25:33.447Z,18.60
2022-07-29T03:28:00.429Z,18.50
2022-07-29T03:30:27.373Z,18.50
2022-07-29T03:32:54.267Z,18.50
2022-07-29T03:35:23.634Z,18.40
2022-07-29T03:37:50.550Z,18.40
2022-07-29T03:40:46.272Z,18.40
2022-07-29T03:43:16.641Z,18.40
2022-07-29T03:45:49.155Z,18.40
2022-07-29T03:48:21.077Z,18.40
2022-07-29T03:50:48.064Z,18.40
2022-07-29T03:53:15.003Z,18.40
2022-07-29T03:55:49.724Z,18.30
2022-07-29T03:58:32.830Z,18.30
2022-07-29T04:01:00.405Z,18.30
2022-07-29T04:03:27.517Z,18.30
2022-07-29T04:06:03.747Z,18.30
2022-07-29T04:08:30.605Z,18.30
2022-07-29T04:10:57.517Z,18.30
2022-07-29T04:13:24.437Z,18.30
2022-07-29T04:15:51.430Z,18.30
2022-07-29T04:18:18.453Z,18.20
2022-07-29T04:20:45.439Z,18.30
2022-07-29T04:23:12.310Z,18.30
2022-07-29T04:25:40.858Z,18.30
2022-07-29T04:28:08.938Z,18.30
2022-07-29T04:30:37.440Z,18.30
2022-07-29T04:33:08.015Z,18.30
2022-07-29T04:35:45.705Z,18.40
2022-07-29T04:38:17.288Z,18.40
2022-07-29T04:40:44.400Z,18.30
2022-07-29T04:43:11.924Z,18.10
2022-07-29T04:45:41.174Z,18.00
2022-07-29T04:48:08.101Z,18.10
2022-07-29T04:50:35.023Z,18.20
2022-07-29T04:53:01.858Z,18.30
2022-07-29T04:55:28.702Z,18.30
2022-07-29T04:57:55.554Z,18.30
2022-07-29T05:00:24.112Z,18.20
2022-07-29T05:03:00.545Z,18.10
2022-07-29T05:05:27.485Z,17.80
2022-07-29T05:07:54.422Z,18.00
2022-07-29T05:10:21.312Z,18.10
2022-07-29T05:12:48.250Z,18.20
2022-07-29T05:15:15.366Z,18.30
2022-07-29T05:17:42.249Z,18.40
2022-07-29T05:20:09.803Z,18.50
2022-07-29T05:22:36.975Z,18.60
2022-07-29T05:25:08.818Z,18.60
2022-07-29T05:27:37.750Z,18.70
2022-07-29T05:30:05.314Z,18.70
2022-07-29T05:32:32.786Z,18.70
2022-07-29T05:34:59.718Z,18.70
2022-07-29T05:37:26.621Z,18.80
2022-07-29T05:39:56.843Z,18.90
2022-07-29T05:42:25.463Z,19.00
2022-07-29T05:44:53.606Z,19.20
2022-07-29T05:47:20.612Z,19.40
2022-07-29T05:49:47.996Z,19.70
2022-07-29T05:52:15.228Z,19.90
2022-07-29T05:54:42.244Z,20.10
2022-07-29T05:57:09.552Z,20.30
2022-07-29T05:59:39.699Z,20.40
2022-07-29T06:02:06.712Z,20.60
2022-07-29T06:04:34.662Z,20.60
2022-07-29T06:07:02.663Z,20.80
2022-07-29T06:09:29.803Z,20.90
2022-07-29T06:11:56.785Z,21.10
2022-07-29T06:14:23.694Z,21.30
2022-07-29T06:16:50.575Z,21.40
2022-07-29T06:19:17.552Z,21.70
2022-07-29T06:21:45.283Z,21.90
2022-07-29T06:24:16.829Z,22.30
2022-07-29T06:26:44.339Z,22.50
2022-07-29T06:29:11.714Z,22.90
2022-07-29T06:31:39.557Z,23.20
2022-07-29T06:34:06.649Z,23.40
2022-07-29T06:36:39.690Z,23.70
2022-07-29T06:39:09.797Z,23.70
2022-07-29T06:41:38.585Z,23.60
2022-07-29T06:44:05.647Z,23.90
2022-07-29T06:46:33.228Z,24.20
2022-07-29T06:49:02.440Z,23.90
2022-07-29T06:51:29.875Z,24.10
2022-07-29T06:54:02.086Z,24.20
2022-07-29T06:56:38.283Z,24.00
2022-07-29T06:59:09.200Z,23.30
2022-07-29T07:01:43.433Z,23.70
2022-07-29T07:04:11.809Z,24.20
2022-07-29T07:06:39.030Z,24.10
2022-07-29T07:09:06.046Z,24.60
2022-07-29T07:11:32.894Z,24.80
2022-07-29T07:14:03.500Z,24.60
2022-07-29T07:16:32.483Z,23.90
2022-07-29T07:19:00.238Z,24.20
2022-07-29T07:21:27.129Z,24.00
2022-07-29T07:23:57.392Z,23.80
2022-07-29T07:26:24.293Z,23.70
2022-07-29T07:28:51.213Z,24.30
2022-07-29T07:31:18.244Z,25.00
2022-07-29T07:33:45.101Z,25.30
2022-07-29T07:36:11.965Z,25.50
2022-07-29T07:38:38.915Z,25.80
2022-07-29T07:41:05.933Z,26.00
2022-07-29T07:43:32.779Z,25.80
2022-07-29T07:45:59.729Z,25.70
2022-07-29T07:48:26.656Z,25.60
2022-07-29T07:50:53.606Z,26.20
2022-07-29T07:53:22.143Z,26.50
2022-07-29T07:58:36.292Z,26.60
2022-07-29T08:01:03.657Z,26.90
2022-07-29T08:03:30.526Z,27.00
2022-07-29T08:05:58.126Z,27.10
2022-07-29T08:08:25.026Z,27.20
2022-07-29T08:10:54.530Z,27.30
2022-07-29T08:13:24.380Z,27.50
2022-07-29T08:16:01.466Z,27.80
2022-07-29T08:18:32.182Z,27.70
2022-07-29T08:20:59.984Z,27.80
2022-07-29T08:23:31.636Z,28.00
2022-07-29T08:26:14.308Z,27.20
2022-07-29T08:28:46.847Z,26.70
2022-07-29T08:31:14.682Z,26.00
2022-07-29T08:33:41.676Z,26.20
2022-07-29T08:36:09.172Z,26.80
2022-07-29T08:38:35.989Z,27.00
2022-07-29T08:41:02.933Z,26.80
2022-07-29T08:43:30.186Z,27.20
2022-07-29T08:45:57.264Z,27.50
2022-07-29T08:48:25.687Z,27.40
2022-07-29T08:50:56.854Z,27.20
2022-07-29T08:53:27.714Z,27.10
2022-07-29T08:55:55.532Z,27.60
2022-07-29T08:58:24.970Z,27.90
2022-07-29T09:00:55.971Z,28.00
2022-07-29T09:03:32.494Z,28.60
2022-07-29T09:06:04.558Z,29.20
2022-07-29T09:08:35.418Z,29.10
2022-07-29T09:11:05.659Z,28.00
2022-07-29T09:13:32.709Z,27.70
2022-07-29T09:15:59.751Z,27.50
2022-07-29T09:18:42.313Z,27.60
2022-07-29T09:21:31.763Z,28.20
2022-07-29T09:24:11.740Z,28.40
2022-07-29T09:26:44.418Z,28.20
2022-07-29T09:29:22.067Z,28.00
2022-07-29T09:31:52.999Z,28.60
2022-07-29T09:34:31.089Z,29.40
2022-07-29T09:36:58.738Z,29.80
2022-07-29T09:39:31.718Z,30.30
2022-07-29T09:42:02.909Z,30.20
2022-07-29T09:44:51.545Z,30.40
2022-07-29T09:47:19.965Z,30.00
2022-07-29T09:50:01.411Z,29.90
2022-07-29T09:52:30.873Z,29.80
2022-07-29T09:55:17.958Z,29.30
2022-07-29T09:57:47.629Z,29.00
2022-07-29T10:00:20.799Z,28.70
2022-07-29T10:02:48.483Z,28.70
2022-07-29T10:05:26.823Z,28.60
2022-07-29T10:08:03.418Z,28.60
2022-07-29T10:10:34.702Z,29.10
2022-07-29T10:13:13.552Z,29.10
2022-07-29T10:15:46.071Z,29.40
2022-07-29T10:18:15.435Z,29.50
2022-07-29T10:20:42.324Z,29.50
2022-07-29T10:23:10.525Z,29.90
2022-07-29T10:25:37.877Z,28.90
2022-07-29T10:28:07.532Z,28.70
2022-07-29T10:30:35.035Z,28.90
2022-07-29T10:33:53.739Z,29.00
2022-07-29T10:36:24.522Z,29.60
2022-07-29T10:39:22.345Z,30.20
2022-07-29T10:42:29.840Z,30.30
2022-07-29T10:45:01.940Z,30.40
2022-07-29T10:47:29.205Z,29.70
2022-07-29T10:50:05.367Z,29.70
2022-07-29T10:52:50.548Z,29.90
2022-07-29T10:55:43.326Z,29.80
2022-07-29T10:58:19.929Z,29.00
2022-07-29T11:00:52.242Z,28.70
2022-07-29T11:03:49.358Z,28.90
2022-07-29T11:06:18.184Z,29.70
2022-07-29T11:09:35.302Z,30.50
2022-07-29T11:12:39.791Z,31.30
2022-07-29T11:15:09.645Z,31.20
2022-07-29T11:18:02.642Z,30.70
2022-07-29T11:20:42.687Z,29.90
2022-07-29T11:23:33.520Z,30.00
2022-07-29T11:26:24.728Z,30.60
2022-07-29T11:28:52.186Z,31.50
2022-07-29T11:31:44.122Z,31.00
2022-07-29T11:34:28.078Z,31.10
2022-07-29T11:37:10.034Z,31.80
2022-07-29T11:40:01.494Z,32.40
2022-07-29T11:42:32.447Z,31.80
2022-07-29T11:45:43.578Z,31.90
2022-07-29T11:48:29.752Z,31.70
2022-07-29T11:50:48.157Z,31.90
2022-07-29T11:53:16.222Z,32.10
2022-07-29T11:58:31.031Z,33.40
2022-07-29T12:00:58.981Z,34.00
2022-07-29T12:03:35.066Z,32.30
2022-07-29T12:06:23.739Z,32.10
2022-07-29T12:08:50.612Z,32.30
2022-07-29T12:11:22.782Z,31.20
2022-07-29T12:13:52.141Z,31.50
2022-07-29T12:16:26.020Z,31.90
2022-07-29T12:19:06.152Z,31.50
2022-07-29T12:21:56.353Z,30.80
2022-07-29T12:24:26.606Z,31.30
2022-07-29T12:26:59.448Z,31.20
2022-07-29T12:29:35.118Z,31.30
2022-07-29T12:32:14.266Z,31.40
2022-07-29T12:34:42.071Z,31.90
2022-07-29T12:37:11.126Z,31.70
2022-07-29T12:39:38.194Z,32.30
2022-07-29T12:42:18.799Z,31.70
2022-07-29T12:44:51.345Z,32.00
2022-07-29T12:47:20.809Z,32.10
2022-07-29T12:49:49.468Z,31.00
2022-07-29T12:52:31.989Z,30.70
2022-07-29T12:54:59.513Z,31.00
2022-07-29T12:57:54.358Z,32.00
2022-07-29T13:00:25.270Z,32.70
2022-07-29T13:03:01.064Z,33.30
2022-07-29T13:05:49.394Z,33.60
2022-07-29T13:08:20.261Z,32.70
2022-07-29T13:10:48.973Z,32.90
2022-07-29T13:13:16.490Z,33.00
2022-07-29T13:15:47.966Z,33.00
2022-07-29T13:18:31.600Z,33.00
2022-07-29T13:20:59.215Z,32.20
2022-07-29T13:23:26.072Z,31.70
2022-07-29T13:25:52.936Z,31.20
2022-07-29T13:28:22.430Z,30.80
2022-07-29T13:30:49.371Z,30.70
2022-07-29T13:33:16.285Z,30.50
2022-07-29T13:35:43.188Z,30.00
2022-07-29T13:38:10.104Z,29.60
2022-07-29T13:40:36.997Z,29.60
2022-07-29T13:43:04.985Z,29.40
2022-07-29T13:45:31.890Z,29.10
2022-07-29T13:47:58.743Z,28.50
2022-07-29T13:50:25.655Z,28.10
2022-07-29T13:52:52.674Z,28.10
2022-07-29T13:55:20.077Z,28.00
2022-07-29T13:57:46.941Z,27.90
2022-07-29T14:00:14.513Z,27.90
2022-07-29T14:02:41.941Z,27.60
2022-07-29T14:05:10.993Z,27.30
2022-07-29T14:07:41.992Z,27.30
2022-07-29T14:10:10.021Z,27.00
2022-07-29T14:12:37.274Z,27.00
2022-07-29T14:15:04.698Z,26.70
2022-07-29T14:17:31.562Z,27.00
2022-07-29T14:20:03.063Z,26.90
2022-07-29T14:22:42.354Z,27.00
2022-07-29T14:25:14.506Z,26.90
2022-07-29T14:27:43.612Z,26.90
2022-07-29T14:30:11.393Z,27.00
2022-07-29T14:32:38.251Z,27.00
2022-07-29T14:35:06.735Z,27.20
2022-07-29T14:37:40.569Z,27.30
2022-07-29T14:40:09.521Z,27.50
2022-07-29T14:42:37.968Z,27.20
2022-07-29T14:45:07.345Z,27.20
2022-07-29T14:47:35.168Z,26.90
2022-07-29T14:50:02.459Z,27.00
2022-07-29T14:52:29.337Z,26.90
2022-07-29T14:54:56.210Z,26.70
2022-07-29T14:57:23.101Z,26.80
2022-07-29T14:59:49.982Z,26.60
2022-07-29T15:02:16.911Z,26.50
2022-07-29T15:04:44.768Z,26.50
2022-07-29T15:07:11.602Z,26.60
2022-07-29T15:09:40.372Z,26.40
2022-07-29T15:12:17.284Z,26.20
2022-07-29T15:14:44.124Z,26.00
2022-07-29T15:17:11.232Z,25.80
2022-07-29T15:19:38.430Z,25.50
2022-07-29T15:22:11.617Z,25.50
2022-07-29T15:24:38.452Z,25.50
2022-07-29T15:27:05.722Z,25.60
2022-07-29T15:29:32.661Z,25.60
2022-07-29T15:32:00.217Z,25.60
2022-07-29T15:34:27.463Z,25.60
2022-07-29T15:36:54.458Z,25.60
2022-07-29T15:39:22.977Z,25.50
2022-07-29T15:41:50.783Z,25.60
2022-07-29T15:44:18.550Z,25.60
2022-07-29T15:47:03.866Z,25.50
2022-07-29T15:49:48.245Z,25.30
2022-07-29T15:52:25.848Z,25.40
2022-07-29T15:54:57.566Z,25.50
2022-07-29T15:57:25.085Z,25.60
2022-07-29T15:59:52.502Z,25.60
2022-07-29T16:02:19.955Z,25.70
2022-07-29T16:04:47.186Z,25.70
2022-07-29T16:07:14.814Z,25.80
2022-07-29T16:09:42.970Z,25.90
2022-07-29T16:12:15.229Z,26.00
2022-07-29T16:14:45.144Z,26.00
2022-07-29T16:17:14.718Z,26.00
2022-07-29T16:19:43.246Z,26.00
2022-07-29T16:22:10.686Z,26.00
2022-07-29T16:24:38.819Z,26.00
2022-07-29T16:27:05.845Z,25.90
2022-07-29T16:29:32.752Z,25.90
2022-07-29T16:31:59.735Z,25.90
2022-07-29T16:34:26.589Z,25.80
2022-07-29T16:36:53.430Z,25.90
2022-07-29T16:39:20.280Z,25.90
2022-07-29T16:41:47.127Z,25.90
2022-07-29T16:44:14.322Z,25.80
2022-07-29T16:46:44.980Z,25.80
2022-07-29T16:49:12.267Z,25.60
2022-07-29T16:51:45.249Z,25.70
2022-07-29T16:54:12.077Z,25.60
2022-07-29T16:56:39.035Z,25.40
2022-07-29T16:59:07.991Z,25.60
2022-07-29T17:01:34.814Z,25.40
2022-07-29T17:04:07.311Z,25.40
2022-07-29T17:06:40.086Z,25.30
2022-07-29T17:09:10.353Z,25.30
2022-07-29T17:11:54.049Z,25.20
2022-07-29T17:14:28.085Z,25.10
2022-07-29T17:17:02.079Z,25.10
2022-07-29T17:19:35.529Z,25.20
2022-07-29T17:22:11.610Z,25.10
2022-07-29T17:24:42.705Z,25.00
2022-07-29T17:27:10.227Z,24.90
2022-07-29T17:29:38.967Z,24.70
2022-07-29T17:32:07.420Z,24.50
2022-07-29T17:34:36.235Z,24.40
2022-07-29T17:37:04.482Z,24.40
2022-07-29T17:39:31.559Z,24.40
2022-07-29T17:41:59.283Z,24.20
2022-07-29T17:44:26.131Z,24.10
2022-07-29T17:46:53.090Z,23.80
2022-07-29T17:49:20.043Z,23.60
2022-07-29T17:51:47.117Z,23.40
2022-07-29T17:54:14.033Z,23.00
2022-07-29T17:56:41.476Z,22.70
2022-07-29T17:59:10.048Z,22.60
2022-07-29T18:01:40.027Z,22.50
2022-07-29T18:04:08.297Z,22.50
2022-07-29T18:06:35.154Z,22.50
2022-07-29T18:09:02.064Z,22.40
2022-07-29T18:11:30.812Z,22.50
2022-07-29T18:13:57.783Z,22.30
2022-07-29T18:16:29.362Z,22.20
2022-07-29T18:18:56.242Z,22.00
2022-07-29T18:21:37.569Z,21.90
2022-07-29T18:24:10.753Z,21.80
2022-07-29T18:26:38.670Z,21.70
2022-07-29T18:29:05.903Z,21.60
2022-07-29T18:31:36.439Z,21.50
2022-07-29T18:34:03.318Z,21.20
2022-07-29T18:36:30.760Z,21.10
2022-07-29T18:38:57.672Z,20.90
2022-07-29T18:41:24.516Z,20.70
2022-07-29T18:43:51.355Z,20.70
2022-07-29T18:46:18.258Z,20.70
2022-07-29T18:48:45.373Z,20.70
2022-07-29T18:51:12.210Z,20.70
2022-07-29T18:53:39.159Z,20.70
2022-07-29T18:56:06.028Z,20.70
2022-07-29T18:58:33.373Z,20.60
2022-07-29T19:01:00.731Z,20.50
2022-07-29T19:03:27.593Z,20.40
2022-07-29T19:05:54.440Z,20.50
2022-07-29T19:08:21.298Z,20.50
2022-07-29T19:10:48.140Z,20.40
2022-07-29T19:13:15.089Z,20.60
2022-07-29T19:15:42.045Z,20.40
2022-07-29T19:18:08.976Z,20.30
2022-07-29T19:20:35.943Z,20.30
2022-07-29T19:23:02.790Z,20.30
2022-07-29T19:25:29.994Z,20.20
2022-07-29T19:27:56.943Z,20.20
2022-07-29T19:30:23.800Z,19.90
2022-07-29T19:32:50.716Z,19.90
2022-07-29T19:35:24.177Z,19.90
2022-07-29T19:37:52.833Z,20.00
2022-07-29T19:40:19.977Z,20.10
2022-07-29T19:42:49.836Z,20.00
2022-07-29T19:45:16.924Z,20.00
2022-07-29T19:47:44.025Z,20.10
2022-07-29T19:50:11.277Z,20.10
2022-07-29T19:52:38.527Z,19.80
2022-07-29T19:55:07.904Z,19.50
2022-07-29T19:57:40.878Z,19.60
2022-07-29T20:00:13.537Z,19.60
2022-07-29T20:02:42.418Z,19.50
2022-07-29T20:05:10.781Z,19.60
2022-07-29T20:07:39.058Z,19.50
2022-07-29T20:10:08.037Z,19.10
2022-07-29T20:12:37.313Z,19.20
2022-07-29T20:15:07.046Z,19.20
2022-07-29T20:17:34.355Z,19.10
2022-07-29T20:20:08.545Z,19.20
2022-07-29T20:22:36.807Z,19.30
2022-07-29T20:25:05.413Z,19.10
2022-07-29T20:27:32.245Z,19.10
2022-07-29T20:29:59.074Z,19.00
2022-07-29T20:32:25.912Z,19.10
2022-07-29T20:34:52.823Z,19.10
2022-07-29T20:37:20.585Z,19.00
2022-07-29T20:39:47.900Z,18.80
2022-07-29T20:42:16.146Z,18.70
2022-07-29T20:44:43.199Z,18.70
2022-07-29T20:47:10.157Z,18.60
2022-07-29T20:49:37.023Z,18.80
2022-07-29T20:52:04.566Z,18.80
2022-07-29T20:54:31.565Z,18.90
2022-07-29T20:56:58.654Z,18.80
2022-07-29T20:59:25.752Z,18.90
2022-07-29T21:01:52.694Z,18.90
2022-07-29T21:04:19.658Z,19.00
2022-07-29T21:06:46.485Z,18.90
2022-07-29T21:09:13.377Z,18.90
2022-07-29T21:11:44.443Z,18.90
2022-07-29T21:14:35.579Z,18.70
2022-07-29T21:17:05.796Z,18.50
2022-07-29T21:19:33.123Z,18.40
2022-07-29T21:22:00.124Z,18.30
2022-07-29T21:24:26.946Z,18.20
2022-07-29T21:27:20.902Z,18.20
2022-07-29T21:29:48.699Z,18.30
2022-07-29T21:32:27.485Z,18.50
2022-07-29T21:34:57.856Z,18.50
2022-07-29T21:37:24.794Z,18.40
2022-07-29T21:39:51.697Z,18.50
2022-07-29T21:42:18.718Z,18.50
2022-07-29T21:44:45.612Z,18.50
2022-07-29T21:47:12.616Z,18.40
2022-07-29T21:49:39.801Z,18.40
2022-07-29T21:52:08.137Z,18.50
2022-07-29T21:54:36.274Z,18.50
2022-07-29T21:57:03.936Z,18.50
2022-07-29T21:59:31.811Z,18.50
2022-07-29T22:02:00.895Z,18.60
2022-07-29T22:04:29.787Z,18.70
2022-07-29T22:06:58.390Z,18.70
2022-07-29T22:09:26.116Z,18.70
2022-07-29T22:11:53.709Z,18.70
2022-07-29T22:14:21.178Z,18.70
2022-07-29T22:16:49.055Z,18.50
2022-07-29T22:19:16.046Z,18.40
2022-07-29T22:21:42.947Z,18.40
2022-07-29T22:24:10.576Z,18.30
2022-07-29T22:26:38.294Z,18.30
2022-07-29T22:29:05.884Z,18.30
2022-07-29T22:31:32.769Z,18.40
2022-07-29T22:33:59.658Z,18.40
2022-07-29T22:36:26.905Z,18.30
2022-07-29T22:38:53.782Z,18.30
2022-07-29T22:41:20.599Z,18.20
2022-07-29T22:43:47.469Z,18.30
2022-07-29T22:46:14.350Z,18.40
2022-07-29T22:48:41.280Z,18.40
2022-07-29T22:51:08.191Z,18.50
2022-07-29T22:53:36.023Z,18.50
2022-07-29T22:56:03.017Z,18.50
2022-07-29T22:58:31.027Z,18.30
2022-07-29T23:00:58.052Z,18.30
2022-07-29T23:03:24.978Z,18.20
2022-07-29T23:05:51.952Z,18.00
2022-07-29T23:08:19.971Z,18.00
2022-07-29T23:10:47.420Z,18.10
2022-07-29T23:13:14.474Z,18.20
2022-07-29T23:15:41.641Z,18.20
2022-07-29T23:18:08.473Z,18.30
2022-07-29T23:20:35.603Z,18.30
2022-07-29T23:23:02.543Z,18.20
2022-07-29T23:25:29.524Z,18.20
2022-07-29T23:27:56.385Z,18.20
2022-07-29T23:30:23.326Z,18.10
2022-07-29T23:32:50.274Z,18.10
2022-07-29T23:35:17.120Z,18.20
2022-07-29T23:37:44.037Z,18.10
2022-07-29T23:40:14.549Z,18.00
2022-07-29T23:42:42.751Z,18.00
2022-07-29T23:45:11.658Z,18.00
2022-07-29T23:47:38.637Z,18.00
2022-07-29T23:50:07.849Z,18.00
2022-07-29T23:52:35.564Z,18.00
2022-07-29T23:55:37.998Z,18.10
2022-07-29T23:57:50.103Z,18.00
